Time;durP1;ratioP1;P1;durP2;ratioP2;P2;SDS_P1;SDS_P2;PMS_P1;PMS_P2;Temp;Humidity;BMP_temperature;BMP_pressure;BME280_temperature;BME280_humidity;BME280_pressure;Samples;Min_cycle;Max_cycle;Signal;HPM_P1;HPM_P2
2021/05/06 00:32:38;;;;;;;;;;;;;;;21.75;29.81;97178.78;4927007;29;616;-78
2021/05/06 00:35:04;;;;;;;;;;;;;;;21.67;30.14;97174.69;4926592;29;958;-79
2021/05/06 00:37:32;;;;;;;;;;;;;;;21.70;29.97;97168.88;4925956;29;1903;-78
2021/05/06 00:40:03;;;;;;;;;;;;;;;21.71;29.65;97161.97;4926784;29;840;-78
2021/05/06 00:56:29;;;;;;;;;;;;;;;21.74;29.74;97175.19;4926487;29;1898;-78
2021/05/06 00:59:18;;;;;;;;;;;;;;;21.75;29.67;97171.09;4926324;29;970;-78
2021/05/06 01:09:17;;;;;;;;;;;;;;;21.74;29.66;97158.19;4928984;29;880;-79
2021/05/06 01:11:48;;;;;;;;;;;;;;;21.79;29.55;97151.91;4929066;29;1261;-78
2021/05/06 01:14:14;;;;;;;;;;;;;;;21.66;29.79;97151.25;4929010;29;1198;-78
2021/05/06 01:16:39;;;;;;;;;;;;;;;21.70;29.79;97145.44;4912781;29;1915;-78
2021/05/06 01:19:06;;;;;;;;;;;;;;;21.82;29.59;97153.03;4928394;29;947;-78
2021/05/06 01:21:31;;;;;;;;;;;;;;;21.70;29.70;97156.75;4945074;29;628;-78
2021/05/06 01:23:57;;;;;;;;;;;;;;;21.76;29.76;97147.22;4945063;29;671;-78
2021/05/06 01:29:04;;;;;;;;;;;;;;;21.73;29.81;97139.63;4944840;29;943;-78
2021/05/06 01:31:32;;;;;;;;;;;;;;;21.73;29.91;97145.28;4945072;29;624;-78
2021/05/06 01:36:50;;;;;;;;;;;;;;;21.78;29.90;97141.06;4944400;29;1906;-78
2021/05/06 01:47:31;;;;;;;;;;;;;;;21.59;30.19;97154.34;4944803;29;671;-78
2021/05/06 01:58:51;;;;;;;;;;;;;;;21.65;30.46;97148.88;4927949;29;1271;-78
2021/05/06 02:01:17;;;;;;;;;;;;;;;21.71;30.17;97136.50;4944130;29;827;-78
2021/05/06 02:03:42;;;;;;;;;;;;;;;21.79;30.01;97137.75;4928158;29;1171;-78
2021/05/06 02:06:08;;;;;;;;;;;;;;;21.70;30.09;97134.88;4944402;29;1029;-76
2021/05/06 02:08:33;;;;;;;;;;;;;;;21.82;29.84;97142.50;4944270;29;1143;-78
2021/05/06 02:11:12;;;;;;;;;;;;;;;21.78;30.01;97147.50;4944425;29;651;-78
2021/05/06 02:14:07;;;;;;;;;;;;;;;21.81;29.80;97149.44;4943997;29;826;-78
2021/05/06 02:16:39;;;;;;;;;;;;;;;21.81;29.75;97140.94;4927459;29;2011;-78
2021/05/06 02:19:07;;;;;;;;;;;;;;;21.73;29.92;97133.97;4944061;29;1306;-78
2021/05/06 02:21:34;;;;;;;;;;;;;;;21.73;29.92;97150.16;4927801;29;1299;-78
2021/05/06 02:24:01;;;;;;;;;;;;;;;21.69;30.11;97161.63;4927742;29;652;-78
2021/05/06 02:26:28;;;;;;;;;;;;;;;21.69;30.03;97147.47;4927784;29;1196;-78
2021/05/06 02:28:53;;;;;;;;;;;;;;;21.70;30.09;97151.09;4943919;29;648;-78
2021/05/06 02:31:20;;;;;;;;;;;;;;;21.66;30.31;97159.75;4943534;29;1002;-78
2021/05/06 02:33:46;;;;;;;;;;;;;;;21.79;30.05;97160.41;4943639;29;1000;-78
2021/05/06 02:36:12;;;;;;;;;;;;;;;21.81;30.14;97162.78;4943992;29;1899;-78
2021/05/06 02:38:38;;;;;;;;;;;;;;;21.86;30.03;97159.31;4943753;29;703;-78
2021/05/06 02:41:03;;;;;;;;;;;;;;;21.83;30.40;97149.72;4927215;29;672;-78
2021/05/06 02:43:29;;;;;;;;;;;;;;;21.84;30.13;97154.13;4943606;29;652;-78
2021/05/06 02:45:54;;;;;;;;;;;;;;;21.90;30.19;97147.84;4943481;29;1089;-78
2021/05/06 02:48:20;;;;;;;;;;;;;;;21.76;30.13;97155.69;4942522;29;929;-78
2021/05/06 02:50:56;;;;;;;;;;;;;;;21.88;30.16;97158.88;4943432;29;892;-78
2021/05/06 02:53:25;;;;;;;;;;;;;;;21.75;30.38;97159.75;4943808;29;651;-78
2021/05/06 02:59:08;;;;;;;;;;;;;;;21.74;30.40;97166.69;4943112;29;1973;-78
2021/05/06 03:03:51;;;;;;;;;;;;;;;21.87;30.31;97182.78;4943287;29;652;-78
2021/05/06 03:06:27;;;;;;;;;;;;;;;21.81;30.31;97191.09;4926303;29;1148;-78
2021/05/06 03:08:57;;;;;;;;;;;;;;;21.79;30.26;97199.28;4943219;29;645;-78
2021/05/06 03:25:05;;;;;;;;;;;;;;;21.79;30.48;97227.59;4943092;29;667;-78
2021/05/06 03:27:32;;;;;;;;;;;;;;;21.65;30.48;97233.81;4942933;29;691;-79
2021/05/06 03:30:11;;;;;;;;;;;;;;;21.94;30.08;97234.25;4926311;29;872;-77
2021/05/06 03:46:42;;;;;;;;;;;;;;;21.82;29.90;97238.00;4942330;29;955;-78
2021/05/06 04:18:29;;;;;;;;;;;;;;;21.70;30.08;97282.13;4884057;29;1105;-77
2021/05/06 04:26:36;;;;;;;;;;;;;;;21.72;30.30;97290.97;4928253;29;715;-76
2021/05/06 04:39:17;;;;;;;;;;;;;;;21.93;29.58;97299.88;4942385;29;636;-77
2021/05/06 04:41:57;;;;;;;;;;;;;;;21.78;29.96;97300.44;4942021;29;612;-76
2021/05/06 04:55:29;;;;;;;;;;;;;;;21.68;30.09;97312.94;4941984;29;632;-76
2021/05/06 05:05:47;;;;;;;;;;;;;;;21.78;30.28;97320.25;4941852;29;959;-76
2021/05/06 05:08:15;;;;;;;;;;;;;;;21.70;30.12;97313.25;4941490;29;927;-77
2021/05/06 05:14:16;;;;;;;;;;;;;;;21.68;30.30;97317.81;4945512;29;639;-76
2021/05/06 05:27:02;;;;;;;;;;;;;;;21.65;30.20;97325.19;4902479;29;1089;-76
2021/05/06 05:29:27;;;;;;;;;;;;;;;21.73;30.23;97325.72;4945315;29;592;-77
2021/05/06 05:31:53;;;;;;;;;;;;;;;21.72;30.26;97319.28;4945032;29;682;-76
2021/05/06 05:34:33;;;;;;;;;;;;;;;21.83;30.18;97330.19;4945114;29;747;-77
2021/05/06 05:36:59;;;;;;;;;;;;;;;21.84;29.85;97326.88;4944612;29;1899;-76
2021/05/06 05:39:56;;;;;;;;;;;;;;;21.72;30.25;97329.81;4928301;29;947;-76
2021/05/06 05:55:20;;;;;;;;;;;;;;;21.59;30.54;97336.31;4944238;29;864;-76
2021/05/06 05:57:51;;;;;;;;;;;;;;;21.71;30.11;97334.69;4944913;29;1910;-76
2021/05/06 06:00:16;;;;;;;;;;;;;;;21.63;29.97;97350.34;4928247;29;659;-76
2021/05/06 06:02:42;;;;;;;;;;;;;;;21.68;29.72;97358.25;4944368;29;754;-76
2021/05/06 06:05:08;;;;;;;;;;;;;;;21.61;29.82;97358.53;4944566;29;976;-76
2021/05/06 06:07:33;;;;;;;;;;;;;;;21.55;29.71;97354.69;4944080;29;877;-77
2021/05/06 06:09:58;;;;;;;;;;;;;;;21.53;29.85;97357.97;4944494;29;941;-77
2021/05/06 06:12:24;;;;;;;;;;;;;;;21.46;30.04;97361.09;4944128;29;963;-77
2021/05/06 06:14:59;;;;;;;;;;;;;;;21.57;29.77;97355.81;4944103;29;612;-76
2021/05/06 06:17:24;;;;;;;;;;;;;;;21.67;29.23;97368.00;4943990;29;1971;-76
2021/05/06 06:19:51;;;;;;;;;;;;;;;21.62;29.30;97371.41;4944026;29;644;-76
2021/05/06 06:22:19;;;;;;;;;;;;;;;21.69;29.23;97371.16;4943682;29;941;-76
2021/05/06 06:24:44;;;;;;;;;;;;;;;21.65;29.02;97378.19;4911934;29;1203;-76
2021/05/06 06:27:11;;;;;;;;;;;;;;;21.62;29.33;97376.28;4943813;29;881;-77
2021/05/06 06:29:36;;;;;;;;;;;;;;;21.64;29.13;97380.25;4926920;29;784;-77
2021/05/06 06:32:04;;;;;;;;;;;;;;;21.66;29.60;97377.75;4943848;29;600;-76
2021/05/06 06:34:30;;;;;;;;;;;;;;;21.76;29.79;97365.25;4943877;29;675;-77
2021/05/06 06:36:58;;;;;;;;;;;;;;;21.66;30.25;97383.41;4943316;29;1977;-77
2021/05/06 06:39:26;;;;;;;;;;;;;;;21.64;30.44;97380.25;4943338;29;933;-77
2021/05/06 06:41:52;;;;;;;;;;;;;;;21.67;30.60;97387.03;4943508;29;912;-77
2021/05/06 06:44:19;;;;;;;;;;;;;;;21.64;30.97;97391.56;4944173;29;658;-76
2021/05/06 06:46:45;;;;;;;;;;;;;;;21.68;30.61;97386.56;4943602;29;711;-77
2021/05/06 06:49:10;;;;;;;;;;;;;;;21.68;30.81;97395.06;4943503;29;616;-76
2021/05/06 06:51:36;;;;;;;;;;;;;;;21.86;30.53;97402.88;4943166;29;967;-76
2021/05/06 06:54:02;;;;;;;;;;;;;;;21.91;30.63;97395.84;4926743;29;948;-76
2021/05/06 06:56:27;;;;;;;;;;;;;;;21.76;30.73;97410.56;4943228;29;1895;-77
2021/05/06 06:58:53;;;;;;;;;;;;;;;21.69;30.88;97404.34;4943403;29;676;-76
2021/05/06 07:01:19;;;;;;;;;;;;;;;21.79;30.68;97403.16;4943292;29;616;-77
2021/05/06 07:03:45;;;;;;;;;;;;;;;21.78;30.61;97395.91;4926826;29;666;-76
2021/05/06 07:06:10;;;;;;;;;;;;;;;21.73;31.04;97405.78;4942708;29;973;-77
2021/05/06 07:08:38;;;;;;;;;;;;;;;21.77;31.02;97400.00;4943085;29;900;-77
2021/05/06 07:11:04;;;;;;;;;;;;;;;21.76;30.92;97404.88;4927063;29;980;-76
2021/05/06 07:13:30;;;;;;;;;;;;;;;21.79;30.94;97398.28;4926663;29;637;-76
2021/05/06 07:15:56;;;;;;;;;;;;;;;21.67;31.33;97399.16;4943376;29;703;-77
2021/05/06 07:18:22;;;;;;;;;;;;;;;21.67;31.41;97401.97;4942997;29;1982;-76
2021/05/06 07:20:48;;;;;;;;;;;;;;;21.79;31.06;97409.63;4943052;29;811;-77
2021/05/06 07:23:14;;;;;;;;;;;;;;;21.71;31.16;97413.97;4942647;29;851;-77
2021/05/06 07:25:39;;;;;;;;;;;;;;;21.69;31.10;97410.78;4926496;29;1133;-76
2021/05/06 07:28:15;;;;;;;;;;;;;;;21.70;31.24;97411.56;4926485;29;624;-76
2021/05/06 07:30:41;;;;;;;;;;;;;;;21.68;31.25;97420.53;4943079;29;600;-77
2021/05/06 07:33:07;;;;;;;;;;;;;;;21.78;30.99;97422.19;4942313;29;616;-77
2021/05/06 07:35:32;;;;;;;;;;;;;;;21.72;31.19;97421.22;4926021;29;1332;-77
2021/05/06 07:37:58;;;;;;;;;;;;;;;21.65;31.49;97421.44;4925924;29;1982;-76
2021/05/06 07:40:24;;;;;;;;;;;;;;;21.88;31.11;97428.72;4942692;29;880;-76
2021/05/06 07:42:49;;;;;;;;;;;;;;;21.68;31.28;97426.22;4925937;29;852;-76
2021/05/06 07:45:15;;;;;;;;;;;;;;;21.72;30.90;97431.75;4942717;29;631;-77
2021/05/06 07:47:40;;;;;;;;;;;;;;;21.75;31.22;97425.16;4942623;29;707;-76
2021/05/06 07:50:06;;;;;;;;;;;;;;;21.70;31.25;97422.91;4942314;29;923;-77
2021/05/06 07:52:33;;;;;;;;;;;;;;;21.72;30.85;97432.53;4942190;29;901;-76
2021/05/06 07:54:59;;;;;;;;;;;;;;;21.58;31.12;97431.00;4942628;29;1030;-76
2021/05/06 07:57:24;;;;;;;;;;;;;;;21.72;30.76;97438.19;4942414;29;1966;-77
2021/05/06 07:59:50;;;;;;;;;;;;;;;21.79;30.63;97440.75;4942523;29;589;-76
2021/05/06 08:02:16;;;;;;;;;;;;;;;21.73;30.66;97439.78;4942501;29;605;-76
2021/05/06 08:04:41;;;;;;;;;;;;;;;21.66;30.68;97434.38;4942021;29;1112;-76
2021/05/06 08:07:07;;;;;;;;;;;;;;;21.69;30.60;97438.31;4942233;29;912;-76
2021/05/06 08:09:32;;;;;;;;;;;;;;;21.66;30.86;97439.22;4925579;29;999;-76
2021/05/06 08:12:01;;;;;;;;;;;;;;;21.76;30.37;97444.53;4942326;29;631;-76
2021/05/06 08:14:26;;;;;;;;;;;;;;;21.82;30.58;97442.69;4942624;29;777;-77
2021/05/06 08:16:52;;;;;;;;;;;;;;;21.77;30.60;97443.28;4942380;29;1899;-76
2021/05/06 08:19:17;;;;;;;;;;;;;;;21.77;30.23;97446.09;4941901;29;1090;-76
2021/05/06 08:21:43;;;;;;;;;;;;;;;21.66;30.47;97445.69;4941976;29;894;-77
2021/05/06 08:24:08;;;;;;;;;;;;;;;21.64;30.62;97453.06;4925722;29;1035;-76
2021/05/06 08:26:35;;;;;;;;;;;;;;;21.62;30.96;97453.53;4942297;29;632;-76
2021/05/06 08:29:01;;;;;;;;;;;;;;;21.65;30.37;97461.09;4942556;29;647;-76
2021/05/06 08:31:26;;;;;;;;;;;;;;;21.61;30.37;97457.63;4942214;29;660;-77
2021/05/06 08:33:52;;;;;;;;;;;;;;;21.82;30.08;97459.69;4941868;29;954;-76
2021/05/06 08:36:17;;;;;;;;;;;;;;;21.79;30.27;97466.25;4942042;29;1908;-77
2021/05/06 08:38:42;;;;;;;;;;;;;;;21.73;30.25;97467.31;4925833;29;1237;-76
2021/05/06 08:41:08;;;;;;;;;;;;;;;21.65;30.60;97455.41;4942066;29;696;-76
2021/05/06 08:43:35;;;;;;;;;;;;;;;21.66;30.34;97450.53;4925349;29;824;-76
2021/05/06 08:46:01;;;;;;;;;;;;;;;21.63;30.31;97472.09;4943431;29;631;-76
2021/05/06 08:48:27;;;;;;;;;;;;;;;21.74;30.31;97472.50;4945534;29;953;-76
2021/05/06 08:50:53;;;;;;;;;;;;;;;21.73;30.18;97472.97;4928516;29;923;-76
2021/05/06 08:53:19;;;;;;;;;;;;;;;21.68;30.15;97465.84;4945548;29;868;-76
2021/05/06 08:55:44;;;;;;;;;;;;;;;21.73;30.25;97479.41;4929112;29;656;-76
2021/05/06 08:58:10;;;;;;;;;;;;;;;21.76;30.12;97478.50;4913461;29;1969;-76
2021/05/06 09:00:35;;;;;;;;;;;;;;;21.69;30.44;97473.09;4946002;29;655;-76
2021/05/06 09:03:01;;;;;;;;;;;;;;;21.72;30.29;97477.84;4945228;29;988;-77
2021/05/06 09:05:26;;;;;;;;;;;;;;;21.72;30.41;97477.06;4945261;29;1111;-76
2021/05/06 09:07:52;;;;;;;;;;;;;;;21.63;30.61;97486.25;4945294;29;953;-76
2021/05/06 09:10:44;;;;;;;;;;;;;;;21.66;30.41;97468.34;4945422;29;659;-76
2021/05/06 09:13:25;;;;;;;;;;;;;;;21.81;30.20;97475.09;4940824;29;978;-77
2021/05/06 09:15:50;;;;;;;;;;;;;;;21.66;30.81;97481.69;4945308;29;592;-76
2021/05/06 09:18:35;;;;;;;;;;;;;;;21.81;30.59;97486.41;4944789;29;1975;-77
2021/05/06 09:21:00;;;;;;;;;;;;;;;21.74;30.38;97475.34;4944846;29;837;-76
2021/05/06 09:23:26;;;;;;;;;;;;;;;21.71;30.48;97481.09;4928692;29;695;-76
2021/05/06 09:25:51;;;;;;;;;;;;;;;21.71;30.37;97473.44;4945070;29;659;-76
2021/05/06 09:28:17;;;;;;;;;;;;;;;21.78;30.19;97476.00;4928476;29;1390;-76
2021/05/06 09:30:46;;;;;;;;;;;;;;;21.76;30.48;97481.34;4928905;29;684;-76
2021/05/06 09:33:12;;;;;;;;;;;;;;;21.90;30.24;97479.22;4944683;29;842;-76
2021/05/06 09:35:44;;;;;;;;;;;;;;;21.67;31.04;97481.25;4944864;29;941;-76
2021/05/06 09:38:21;;;;;;;;;;;;;;;21.70;30.71;97469.00;4928230;29;1899;-76
2021/05/06 09:40:47;;;;;;;;;;;;;;;21.82;30.44;97471.00;4945072;29;659;-76
2021/05/06 09:43:23;;;;;;;;;;;;;;;21.82;30.67;97473.84;4928276;29;628;-76
2021/05/06 09:45:48;;;;;;;;;;;;;;;21.73;30.68;97473.75;4944751;29;656;-76
2021/05/06 09:48:15;;;;;;;;;;;;;;;21.69;30.97;97467.41;4944342;29;957;-77
2021/05/06 09:50:42;;;;;;;;;;;;;;;21.65;31.19;97472.41;4944292;29;834;-76
2021/05/06 09:53:14;;;;;;;;;;;;;;;21.73;30.70;97461.63;4944562;29;896;-76
2021/05/06 09:55:40;;;;;;;;;;;;;;;21.84;30.58;97471.31;4944558;29;707;-76
2021/05/06 09:58:22;;;;;;;;;;;;;;;21.83;30.71;97471.78;4944379;29;1969;-76
2021/05/06 10:00:48;;;;;;;;;;;;;;;21.92;30.92;97462.59;4927937;29;757;-76
2021/05/06 10:03:14;;;;;;;;;;;;;;;21.92;30.67;97462.59;4928044;29;937;-76
2021/05/06 10:05:40;;;;;;;;;;;;;;;21.82;30.93;97479.50;4944298;29;1055;-76
2021/05/06 10:08:06;;;;;;;;;;;;;;;21.98;30.72;97477.75;4944162;29;856;-76
2021/05/06 10:10:31;;;;;;;;;;;;;;;21.99;30.56;97484.97;4927950;29;656;-76
2021/05/06 10:12:57;;;;;;;;;;;;;;;21.95;30.80;97487.16;4944537;29;612;-76
2021/05/06 10:15:24;;;;;;;;;;;;;;;21.85;30.86;97487.06;4927785;29;861;-76
2021/05/06 10:17:49;;;;;;;;;;;;;;;21.84;30.85;97479.81;4927457;29;1910;-76
2021/05/06 10:20:15;;;;;;;;;;;;;;;21.79;30.97;97473.97;4927581;29;845;-76
2021/05/06 10:22:40;;;;;;;;;;;;;;;21.83;31.07;97483.91;4927553;29;908;-76
2021/05/06 10:25:06;;;;;;;;;;;;;;;21.89;30.92;97483.31;4927334;29;766;-76
2021/05/06 10:27:32;;;;;;;;;;;;;;;21.95;30.71;97484.31;4944478;29;636;-77
2021/05/06 10:29:57;;;;;;;;;;;;;;;21.94;30.91;97494.06;4943945;29;685;-76
2021/05/06 10:32:23;;;;;;;;;;;;;;;21.93;31.03;97498.16;4943506;29;1086;-76
2021/05/06 10:34:54;;;;;;;;;;;;;;;21.96;30.60;97497.22;4927387;29;871;-76
2021/05/06 10:37:39;;;;;;;;;;;;;;;21.75;31.24;97493.91;4928001;29;1903;-76
2021/05/06 10:40:23;;;;;;;;;;;;;;;21.96;30.48;97497.22;4943732;29;679;-76
2021/05/06 10:42:49;;;;;;;;;;;;;;;21.88;30.78;97507.25;4943622;29;720;-76
2021/05/06 10:45:14;;;;;;;;;;;;;;;21.89;30.76;97497.47;4943659;29;600;-75
2021/05/06 10:47:42;;;;;;;;;;;;;;;21.99;30.54;97502.75;4943227;29;927;-76
2021/05/06 10:50:09;;;;;;;;;;;;;;;21.96;30.55;97502.88;4926456;29;879;-76
2021/05/06 10:52:38;;;;;;;;;;;;;;;22.02;30.47;97516.03;4927160;29;1037;-76
2021/05/06 10:55:03;;;;;;;;;;;;;;;22.00;30.83;97514.88;4943402;29;639;-76
2021/05/06 10:57:32;;;;;;;;;;;;;;;21.98;30.62;97511.72;4943396;29;1976;-76
2021/05/06 10:59:57;;;;;;;;;;;;;;;21.83;30.71;97508.63;4943399;29;649;-76
2021/05/06 11:02:44;;;;;;;;;;;;;;;21.95;30.55;97519.09;4911036;29;1163;-77
2021/05/06 11:05:14;;;;;;;;;;;;;;;21.85;30.65;97517.44;4942733;29;1108;-76
2021/05/06 11:07:39;;;;;;;;;;;;;;;21.97;30.41;97519.44;4926533;29;616;-76
2021/05/06 11:10:05;;;;;;;;;;;;;;;21.94;30.19;97528.84;4926467;29;726;-76
2021/05/06 11:12:31;;;;;;;;;;;;;;;21.83;30.53;97529.22;4943293;29;683;-76
2021/05/06 11:15:00;;;;;;;;;;;;;;;21.85;30.66;97525.94;4943178;29;707;-76
2021/05/06 11:17:26;;;;;;;;;;;;;;;21.79;30.74;97522.88;4942771;29;1975;-76
2021/05/06 11:19:52;;;;;;;;;;;;;;;21.88;30.43;97529.91;4942649;29;952;-76
2021/05/06 11:22:36;;;;;;;;;;;;;;;21.81;30.54;97542.25;4943278;29;834;-76
2021/05/06 11:25:02;;;;;;;;;;;;;;;21.91;30.42;97528.97;4942806;29;878;-76
2021/05/06 11:27:34;;;;;;;;;;;;;;;21.89;30.41;97520.94;4926369;29;1317;-76
2021/05/06 11:30:19;;;;;;;;;;;;;;;21.86;30.72;97521.84;4942858;29;675;-77
2021/05/06 11:32:50;;;;;;;;;;;;;;;21.82;30.60;97536.16;4942553;29;945;-76
2021/05/06 11:35:15;;;;;;;;;;;;;;;21.83;30.91;97529.22;4942720;29;854;-76
2021/05/06 11:37:50;;;;;;;;;;;;;;;21.89;30.64;97537.94;4942666;29;1911;-76
2021/05/06 11:40:21;;;;;;;;;;;;;;;21.85;30.32;97548.59;4926221;29;607;-76
2021/05/06 11:42:46;;;;;;;;;;;;;;;21.89;30.07;97546.44;4926897;29;702;-76
2021/05/06 11:45:19;;;;;;;;;;;;;;;21.94;29.99;97536.56;4942697;29;661;-76
2021/05/06 11:47:45;;;;;;;;;;;;;;;20.06;30.34;97264.44;4926318;29;883;-76
2021/05/06 11:50:17;;;;;;;;;;;;;;;21.92;30.24;97536.22;4942988;29;916;-76
2021/05/06 11:52:42;;;;;;;;;;;;;;;21.99;29.95;97539.59;4942762;29;907;-76
2021/05/06 11:55:08;;;;;;;;;;;;;;;21.95;29.89;97532.47;4942486;29;688;-76
2021/05/06 11:57:33;;;;;;;;;;;;;;;21.95;30.16;97524.75;4942453;29;1894;-76
2021/05/06 12:00:05;;;;;;;;;;;;;;;21.88;30.17;97538.41;4925615;29;765;-77
2021/05/06 12:02:37;;;;;;;;;;;;;;;21.88;30.24;97541.22;4942261;29;1088;-76
2021/05/06 12:05:03;;;;;;;;;;;;;;;21.88;30.18;97530.69;4925475;29;950;-76
2021/05/06 12:07:31;;;;;;;;;;;;;;;21.82;30.41;97538.97;4942566;29;648;-76
2021/05/06 12:10:06;;;;;;;;;;;;;;;21.71;30.69;97541.38;4942542;29;679;-76
2021/05/06 12:12:40;;;;;;;;;;;;;;;21.81;30.32;97537.41;4926005;29;839;-76
2021/05/06 12:15:06;;;;;;;;;;;;;;;21.86;30.26;97538.84;4942789;29;675;-76
2021/05/06 12:17:31;;;;;;;;;;;;;;;21.80;30.33;97541.47;4925696;29;1985;-76
2021/05/06 12:19:58;;;;;;;;;;;;;;;21.77;30.21;97535.94;4943604;29;901;-77
2021/05/06 12:22:23;;;;;;;;;;;;;;;21.84;30.51;97530.81;4929935;29;872;-76
2021/05/06 12:24:49;;;;;;;;;;;;;;;21.87;30.52;97536.81;4946298;29;604;-76
2021/05/06 12:27:21;;;;;;;;;;;;;;;21.90;30.46;97530.22;4946272;29;648;-77
2021/05/06 12:29:48;;;;;;;;;;;;;;;21.90;30.35;97522.50;4929708;29;1122;-76
2021/05/06 12:32:17;;;;;;;;;;;;;;;21.91;30.39;97540.28;4929575;29;845;-76
2021/05/06 12:34:43;;;;;;;;;;;;;;;21.82;30.34;97538.97;4945658;29;895;-77
2021/05/06 12:37:10;;;;;;;;;;;;;;;21.95;30.30;97540.97;4945827;29;1902;-77
2021/05/06 12:39:35;;;;;;;;;;;;;;;21.84;30.48;97542.13;4913292;29;1258;-74
2021/05/06 12:42:01;;;;;;;;;;;;;;;21.78;30.36;97543.97;4946197;29;692;-76
2021/05/06 12:44:40;;;;;;;;;;;;;;;21.94;30.42;97536.56;4946169;29;611;-76
2021/05/06 12:47:15;;;;;;;;;;;;;;;22.02;30.04;97541.53;4945584;29;993;-76
2021/05/06 12:49:41;;;;;;;;;;;;;;;22.04;30.09;97538.22;4945578;29;896;-75
2021/05/06 12:52:28;;;;;;;;;;;;;;;21.99;29.86;97538.81;4945660;29;663;-76
2021/05/06 12:55:02;;;;;;;;;;;;;;;21.85;30.26;97548.59;4945543;29;687;-76
2021/05/06 12:57:28;;;;;;;;;;;;;;;21.84;30.16;97547.78;4945556;29;1898;-76
2021/05/06 12:59:54;;;;;;;;;;;;;;;21.87;30.18;97550.97;4929227;29;659;-76
2021/05/06 13:02:19;;;;;;;;;;;;;;;21.87;30.39;97545.31;4945173;29;1105;-76
2021/05/06 13:04:45;;;;;;;;;;;;;;;21.92;29.77;97548.34;4945099;29;1034;-76
2021/05/06 13:07:10;;;;;;;;;;;;;;;21.91;29.97;97526.13;4945382;29;995;-76
2021/05/06 13:09:40;;;;;;;;;;;;;;;21.84;30.26;97547.00;4945531;29;683;-76
2021/05/06 13:12:12;;;;;;;;;;;;;;;21.82;30.41;97550.31;4945499;29;616;-75
2021/05/06 13:14:42;;;;;;;;;;;;;;;21.85;30.20;97552.19;4928653;29;817;-75
2021/05/06 13:17:20;;;;;;;;;;;;;;;21.85;30.18;97555.03;4944850;29;1975;-76
2021/05/06 13:19:46;;;;;;;;;;;;;;;21.88;30.13;97552.56;4928240;29;1145;-76
2021/05/06 13:22:14;;;;;;;;;;;;;;;21.98;29.92;97540.84;4945191;29;652;-76
2021/05/06 13:24:40;;;;;;;;;;;;;;;21.97;30.11;97555.47;4945137;29;704;-76
2021/05/06 13:27:12;;;;;;;;;;;;;;;21.90;30.01;97555.72;4945055;29;625;-76
2021/05/06 13:29:44;;;;;;;;;;;;;;;21.81;30.19;97573.41;4928967;29;648;-76
2021/05/06 13:32:13;;;;;;;;;;;;;;;21.91;29.88;97562.94;4911823;29;1227;-75
2021/05/06 13:34:38;;;;;;;;;;;;;;;21.90;29.96;97567.03;4944587;29;894;-76
2021/05/06 13:37:04;;;;;;;;;;;;;;;21.85;30.18;97566.38;4928308;29;1890;-76
2021/05/06 13:39:32;;;;;;;;;;;;;;;21.84;30.31;97564.78;4927948;29;952;-76
2021/05/06 13:41:58;;;;;;;;;;;;;;;21.79;30.25;97568.19;4945108;29;604;-76
2021/05/06 13:44:24;;;;;;;;;;;;;;;21.75;30.09;97573.19;4945084;29;672;-76
2021/05/06 13:46:54;;;;;;;;;;;;;;;21.83;29.86;97570.91;4944449;29;840;-76
2021/05/06 13:49:20;;;;;;;;;;;;;;;21.77;29.83;97573.53;4944770;29;919;-75
2021/05/06 13:51:46;;;;;;;;;;;;;;;21.80;29.71;97572.59;4944596;29;884;-76
2021/05/06 13:54:14;;;;;;;;;;;;;;;21.89;29.98;97565.47;4944834;29;747;-75
2021/05/06 13:56:40;;;;;;;;;;;;;;;21.88;29.41;97572.38;4944810;29;1983;-76
2021/05/06 13:59:05;;;;;;;;;;;;;;;21.77;29.88;97567.88;4944512;29;592;-76
2021/05/06 14:01:31;;;;;;;;;;;;;;;21.76;29.78;97580.47;4944257;29;991;-75
2021/05/06 14:03:57;;;;;;;;;;;;;;;21.74;29.91;97565.16;4944370;29;950;-75
2021/05/06 14:06:22;;;;;;;;;;;;;;;21.81;29.78;97571.38;4944522;29;981;-76
2021/05/06 14:08:48;;;;;;;;;;;;;;;21.79;29.95;97562.53;4944671;29;663;-76
2021/05/06 14:11:13;;;;;;;;;;;;;;;21.89;29.54;97571.13;4944665;29;659;-76
2021/05/06 14:13:40;;;;;;;;;;;;;;;21.78;29.76;97566.63;4944485;29;678;-75
2021/05/06 14:16:05;;;;;;;;;;;;;;;21.70;30.19;97570.94;4943941;29;888;-75
2021/05/06 14:18:31;;;;;;;;;;;;;;;21.70;29.90;97576.59;4943733;29;1911;-76
2021/05/06 14:21:01;;;;;;;;;;;;;;;21.86;29.65;97584.16;4944308;29;952;-76
2021/05/06 14:23:27;;;;;;;;;;;;;;;21.81;29.70;97568.56;4944436;29;719;-76
2021/05/06 14:25:53;;;;;;;;;;;;;;;21.66;29.86;97575.94;4944299;29;588;-76
2021/05/06 14:28:18;;;;;;;;;;;;;;;21.76;29.90;97568.31;4944044;29;620;-75
2021/05/06 14:30:44;;;;;;;;;;;;;;;21.80;30.00;97574.66;4943760;29;890;-76
2021/05/06 14:33:09;;;;;;;;;;;;;;;21.88;29.69;97580.88;4943522;29;915;-76
2021/05/06 14:35:35;;;;;;;;;;;;;;;21.89;29.62;97582.47;4943963;29;967;-76
2021/05/06 14:38:00;;;;;;;;;;;;;;;21.85;29.64;97585.41;4943691;29;1975;-76
2021/05/06 14:40:26;;;;;;;;;;;;;;;21.77;29.92;97582.03;4943784;29;651;-75
2021/05/06 14:42:51;;;;;;;;;;;;;;;21.90;29.50;97584.03;4943668;29;636;-76
2021/05/06 14:45:17;;;;;;;;;;;;;;;21.77;29.76;97582.03;4943426;29;827;-75
2021/05/06 14:47:42;;;;;;;;;;;;;;;21.68;30.03;97584.75;4943746;29;888;-75
2021/05/06 14:50:08;;;;;;;;;;;;;;;21.72;29.92;97596.78;4943817;29;1042;-76
2021/05/06 14:52:46;;;;;;;;;;;;;;;21.73;29.76;97587.03;4943567;29;657;-76
2021/05/06 14:55:15;;;;;;;;;;;;;;;21.67;30.00;97596.56;4943355;29;631;-76
2021/05/06 14:57:40;;;;;;;;;;;;;;;21.79;29.57;97590.84;4943501;29;2042;-76
2021/05/06 15:00:06;;;;;;;;;;;;;;;21.94;29.34;97587.53;4943216;29;916;-76
2021/05/06 15:02:32;;;;;;;;;;;;;;;21.81;29.70;97587.56;4943405;29;941;-76
2021/05/06 15:04:57;;;;;;;;;;;;;;;21.78;29.59;97589.28;4943127;29;1004;-76
2021/05/06 15:07:23;;;;;;;;;;;;;;;21.87;29.45;97601.97;4943343;29;639;-76
2021/05/06 15:09:48;;;;;;;;;;;;;;;21.79;29.45;97592.91;4943511;29;665;-76
2021/05/06 15:12:14;;;;;;;;;;;;;;;21.80;29.38;97586.78;4943596;29;631;-76
2021/05/06 15:14:39;;;;;;;;;;;;;;;21.75;29.43;97601.50;4942805;29;912;-76
2021/05/06 15:17:08;;;;;;;;;;;;;;;21.70;29.49;97593.59;4942723;29;1880;-76
2021/05/06 15:19:36;;;;;;;;;;;;;;;21.58;29.90;97598.03;4926813;29;877;-76
2021/05/06 15:22:01;;;;;;;;;;;;;;;21.70;29.57;97604.91;4943254;29;643;-76
2021/05/06 15:24:27;;;;;;;;;;;;;;;21.77;29.58;97593.38;4943394;29;616;-76
2021/05/06 15:26:52;;;;;;;;;;;;;;;21.79;29.50;97599.34;4943268;29;687;-76
2021/05/06 15:29:18;;;;;;;;;;;;;;;21.82;29.27;97595.63;4942760;29;926;-76
2021/05/06 15:31:43;;;;;;;;;;;;;;;21.83;29.23;97602.06;4942544;29;885;-76
2021/05/06 15:34:10;;;;;;;;;;;;;;;21.81;29.23;97599.72;4942892;29;1016;-76
2021/05/06 15:36:36;;;;;;;;;;;;;;;21.75;29.27;97601.50;4942677;29;1910;-76
2021/05/06 15:39:02;;;;;;;;;;;;;;;21.89;29.37;97605.13;4910557;29;668;-76
2021/05/06 15:41:28;;;;;;;;;;;;;;;21.79;29.27;97602.19;4926167;29;1417;-77
2021/05/06 15:43:53;;;;;;;;;;;;;;;21.81;29.38;97613.88;4942531;29;864;-76
2021/05/06 15:46:19;;;;;;;;;;;;;;;21.74;29.08;97614.09;4926272;29;1126;-75
2021/05/06 15:48:44;;;;;;;;;;;;;;;21.77;29.21;97618.84;4942621;29;946;-76
2021/05/06 15:51:10;;;;;;;;;;;;;;;21.68;29.26;97618.75;4942565;29;621;-76
2021/05/06 15:53:35;;;;;;;;;;;;;;;21.85;29.06;97628.69;4942486;29;644;-76
2021/05/06 15:56:01;;;;;;;;;;;;;;;21.73;29.00;97629.50;4942184;29;739;-76
2021/05/06 15:58:27;;;;;;;;;;;;;;;21.73;29.02;97625.88;4925677;29;1978;-76
2021/05/06 16:00:55;;;;;;;;;;;;;;;21.68;29.10;97621.56;4925820;29;867;-76
2021/05/06 16:03:21;;;;;;;;;;;;;;;21.70;29.17;97626.78;4942376;29;1018;-76
2021/05/06 16:05:53;;;;;;;;;;;;;;;21.75;29.19;97629.81;4942416;29;963;-76
2021/05/06 16:08:19;;;;;;;;;;;;;;;21.79;28.75;97641.84;4942561;29;662;-76
2021/05/06 16:10:44;;;;;;;;;;;;;;;21.78;28.91;97643.09;4942435;29;631;-76
2021/05/06 16:13:10;;;;;;;;;;;;;;;21.77;29.04;97644.34;4942024;29;956;-76
2021/05/06 16:15:35;;;;;;;;;;;;;;;21.70;28.77;97650.22;4942040;29;836;-76
2021/05/06 16:18:01;;;;;;;;;;;;;;;21.56;29.27;97656.38;4925863;29;1903;-76
2021/05/06 16:20:31;;;;;;;;;;;;;;;21.65;29.18;97659.28;4942696;29;651;-76
2021/05/06 16:23:09;;;;;;;;;;;;;;;21.60;29.29;97659.84;4942605;29;636;-76
2021/05/06 16:25:35;;;;;;;;;;;;;;;21.61;29.01;97657.84;4925886;29;726;-76
2021/05/06 16:28:01;;;;;;;;;;;;;;;21.59;29.21;97661.09;4925459;29;1157;-76